Time;durP1;ratioP1;P1;durP2;ratioP2;P2;SDS_P1;SDS_P2;PMS_P1;PMS_P2;Temp;Humidity;BMP_temperature;BMP_pressure;BME280_temperature;BME280_humidity;BME280_pressure;Samples;Min_cycle;Max_cycle;Signal;HPM_P1;HPM_P2
2022/02/17 00:01:10;;;;;;;14.85;2.38;;;;;;;5.11;100.00;99658.34;4969410;28;20048;-88
2022/02/17 00:03:36;;;;;;;11.18;2.60;;;;;;;5.07;100.00;99663.19;4985465;28;20495;-89
2022/02/17 00:06:02;;;;;;;10.15;2.30;;;;;;;5.14;100.00;99663.34;4959709;28;20348;-86
2022/02/17 00:08:27;;;;;;;13.82;3.67;;;;;;;5.10;100.00;99667.34;4986449;28;20120;-88
2022/02/17 00:10:53;;;;;;;10.88;1.88;;;;;;;5.13;100.00;99680.31;4991431;28;20079;-86
2022/02/17 00:13:19;;;;;;;12.52;2.22;;;;;;;5.18;100.00;99692.13;4985273;28;20053;-88
2022/02/17 00:16:04;;;;;;;19.02;2.88;;;;;;;5.05;100.00;99674.03;4988150;28;20049;-89
2022/02/17 00:18:48;;;;;;;13.35;2.45;;;;;;;5.11;100.00;99685.84;5004537;28;20494;-88
2022/02/17 00:21:32;;;;;;;10.68;2.83;;;;;;;5.19;100.00;99701.00;4985441;28;20125;-86
2022/02/17 00:24:17;;;;;;;21.35;4.93;;;;;;;5.39;100.00;99706.78;4987055;28;20088;-90
2022/02/17 00:27:02;;;;;;;9.00;1.98;;;;;;;5.49;100.00;99704.78;4988923;28;22217;-88
2022/02/17 00:29:46;;;;;;;9.68;1.55;;;;;;;5.58;100.00;99716.25;5006269;28;20053;-89
2022/02/17 00:32:31;;;;;;;12.82;2.03;;;;;;;5.67;100.00;99707.28;4994372;28;20411;-86
2022/02/17 00:34:56;;;;;;;11.88;2.30;;;;;;;5.78;100.00;99722.06;4991764;28;20049;-87
2022/02/17 00:37:22;;;;;;;13.68;2.10;;;;;;;5.88;100.00;99752.06;5004933;28;20030;-89
2022/02/17 00:39:48;;;;;;;14.27;2.15;;;;;;;5.97;100.00;99750.25;5002292;28;20128;-89
2022/02/17 00:42:15;;;;;;;11.52;1.83;;;;;;;5.97;100.00;99743.06;4973033;28;20037;-86
2022/02/17 00:44:42;;;;;;;9.98;1.90;;;;;;;5.75;100.00;99757.09;4970481;28;20065;-90
2022/02/17 00:47:11;;;;;;;10.95;1.58;;;;;;;5.66;100.00;99762.44;5003102;28;20033;-87
2022/02/17 00:49:36;;;;;;;4.35;1.02;;;;;;;5.26;100.00;99761.44;4985282;28;20068;-84
2022/02/17 00:52:02;;;;;;;13.55;2.28;;;;;;;4.83;100.00;99759.88;4966517;28;20132;-87
2022/02/17 00:54:28;;;;;;;9.43;1.55;;;;;;;4.69;100.00;99761.34;4984905;28;20120;-89
2022/02/17 00:56:54;;;;;;;12.73;1.67;;;;;;;4.59;100.00;99779.28;4974802;28;20423;-85
2022/02/17 00:59:19;;;;;;;13.85;1.50;;;;;;;4.45;100.00;99772.75;4952277;28;20041;-90
2022/02/17 01:01:46;;;;;;;7.53;2.20;;;;;;;4.38;100.00;99764.56;4980822;28;20100;-87
2022/02/17 01:04:14;;;;;;;11.10;1.92;;;;;;;4.43;100.00;99771.25;4981957;28;21032;-86
2022/02/17 01:06:39;;;;;;;6.50;1.30;;;;;;;4.35;100.00;99777.38;4985030;28;20029;-88
2022/02/17 01:09:06;;;;;;;5.97;1.33;;;;;;;4.33;100.00;99777.53;4984053;28;20042;-89
2022/02/17 01:11:32;;;;;;;6.40;0.90;;;;;;;4.25;100.00;99795.28;5005725;28;20116;-88
2022/02/17 01:13:58;;;;;;;5.07;1.33;;;;;;;4.03;100.00;99794.00;4984496;28;20606;-88
2022/02/17 01:16:24;;;;;;;6.32;1.17;;;;;;;3.88;100.00;99797.22;4996972;28;20431;-89
2022/02/17 01:18:49;;;;;;;10.98;2.58;;;;;;;3.76;100.00;99801.16;4983406;28;20435;-87
2022/02/17 01:21:15;;;;;;;14.65;2.00;;;;;;;3.62;100.00;99804.34;4953867;28;20424;-85
2022/02/17 01:23:41;;;;;;;13.25;1.50;;;;;;;3.56;100.00;99813.78;4970338;28;20065;-89
2022/02/17 01:26:07;;;;;;;4.35;1.40;;;;;;;3.61;100.00;99823.97;4984391;28;20034;-85
2022/02/17 01:28:36;;;;;;;6.65;1.48;;;;;;;3.70;100.00;99805.25;4968242;28;20420;-87
2022/02/17 01:31:02;;;;;;;23.33;3.28;;;;;;;3.90;100.00;99805.88;4954353;28;20048;-87
2022/02/17 01:33:28;;;;;;;6.80;1.42;;;;;;;4.02;100.00;99808.28;4983178;28;20108;-89
2022/02/17 01:36:15;;;;;;;4.60;1.92;;;;;;;4.37;100.00;99829.44;4976813;28;20056;-86
2022/02/17 01:38:44;;;;;;;15.35;2.97;;;;;;;4.49;100.00;99821.19;4987397;28;20044;-87
2022/02/17 01:41:11;;;;;;;23.33;2.70;;;;;;;4.49;100.00;99808.69;4989604;28;20041;-86
2022/02/17 01:43:37;;;;;;;10.70;2.20;;;;;;;4.49;100.00;99834.50;4972188;28;20026;-89
2022/02/17 01:46:04;;;;;;;13.23;2.55;;;;;;;4.47;100.00;99841.78;5001832;28;20060;-88
2022/02/17 01:48:31;;;;;;;11.88;2.75;;;;;;;4.57;100.00;99845.19;4969255;28;20033;-90
2022/02/17 01:50:57;;;;;;;19.88;3.17;;;;;;;4.63;100.00;99849.84;4983919;28;20112;-88
2022/02/17 01:53:23;;;;;;;17.80;3.00;;;;;;;4.72;100.00;99856.06;4984629;28;20030;-87
2022/02/17 01:55:50;;;;;;;13.20;2.03;;;;;;;4.74;100.00;99860.25;4981871;28;20026;-88
2022/02/17 01:58:16;;;;;;;14.10;2.40;;;;;;;4.84;100.00;99865.41;4998821;28;20121;-88
2022/02/17 02:00:43;;;;;;;12.70;2.75;;;;;;;4.92;100.00;99877.94;4983971;28;20034;-85
2022/02/17 02:03:09;;;;;;;11.70;1.80;;;;;;;4.93;100.00;99879.63;4981844;28;20103;-87
2022/02/17 02:05:37;;;;;;;19.45;2.97;;;;;;;4.92;100.00;99889.44;4999203;28;20084;-89
2022/02/17 02:08:04;;;;;;;13.40;2.50;;;;;;;4.95;100.00;99885.59;4982722;28;20038;-86
2022/02/17 02:10:29;;;;;;;7.55;2.10;;;;;;;5.02;100.00;99907.94;5001496;28;20083;-89
2022/02/17 02:12:55;;;;;;;8.38;1.58;;;;;;;4.94;100.00;99921.25;4984388;28;20022;-89
2022/02/17 02:15:21;;;;;;;17.77;2.50;;;;;;;4.88;100.00;99924.56;4958788;28;20045;-88
2022/02/17 02:17:47;;;;;;;17.08;3.03;;;;;;;4.98;100.00;99925.28;5004816;28;20500;-89
2022/02/17 02:20:15;;;;;;;13.95;1.75;;;;;;;5.18;100.00;99936.50;4984543;28;20030;-89
2022/02/17 02:22:41;;;;;;;19.17;2.92;;;;;;;5.10;100.00;99899.16;5000155;28;20038;-87
2022/02/17 02:25:07;;;;;;;6.82;1.73;;;;;;;5.17;100.00;99943.66;4962983;28;20595;-89
2022/02/17 02:27:32;;;;;;;6.75;2.03;;;;;;;5.13;100.00;99950.28;5000358;28;20085;-89
2022/02/17 02:29:58;;;;;;;9.30;1.50;;;;;;;5.34;99.70;99984.53;4984306;28;20037;-89
2022/02/17 02:32:24;;;;;;;11.40;2.45;;;;;;;5.73;93.76;100027.50;4968604;28;20087;-89
2022/02/17 02:34:49;;;;;;;11.15;2.80;;;;;;;5.83;93.80;100029.19;4968100;28;20030;-89
2022/02/17 02:37:15;;;;;;;3.83;1.40;;;;;;;5.42;97.60;100010.38;5005689;28;20040;-88
2022/02/17 02:39:59;;;;;;;9.85;1.38;;;;;;;5.01;100.00;100040.34;4985440;28;20391;-89
2022/02/17 02:42:45;;;;;;;10.63;1.67;;;;;;;4.32;100.00;100020.72;4975070;28;20058;-85
2022/02/17 02:45:29;;;;;;;9.55;1.60;;;;;;;3.90;100.00;100031.94;4983279;28;20057;-86
2022/02/17 02:47:55;;;;;;;20.67;4.40;;;;;;;3.71;100.00;100027.59;4983509;28;20066;-88
2022/02/17 02:50:21;;;;;;;8.60;2.00;;;;;;;3.48;100.00;100023.69;4969424;28;20034;-86
2022/02/17 02:52:47;;;;;;;12.63;2.15;;;;;;;3.22;100.00;100020.84;4977164;28;20041;-88
2022/02/17 02:55:12;;;;;;;8.32;2.38;;;;;;;3.28;100.00;100023.78;4984092;28;20034;-87
2022/02/17 02:57:38;;;;;;;8.23;1.65;;;;;;;3.12;100.00;100031.50;4985076;28;20484;-89
2022/02/17 03:00:05;;;;;;;10.10;2.10;;;;;;;3.00;100.00;100022.91;4966957;28;20038;-89
2022/02/17 03:02:30;;;;;;;18.67;2.75;;;;;;;3.06;100.00;100032.09;4981907;28;20040;-85
2022/02/17 03:04:56;;;;;;;13.70;2.25;;;;;;;2.89;100.00;100019.59;4987858;28;20027;-90
2022/02/17 03:07:22;;;;;;;19.08;2.42;;;;;;;2.92;100.00;100041.38;4991035;28;20044;-88
2022/02/17 03:09:47;;;;;;;14.63;2.45;;;;;;;2.71;100.00;100028.28;4989322;28;20052;-87
2022/02/17 03:12:13;;;;;;;19.67;2.80;;;;;;;2.69;100.00;100024.94;4975504;28;20606;-89
2022/02/17 03:14:40;;;;;;;8.40;1.70;;;;;;;2.72;100.00;100034.44;4993456;28;20741;-90
2022/02/17 03:17:06;;;;;;;16.23;2.67;;;;;;;2.77;100.00;100032.19;4972811;28;20078;-87
2022/02/17 03:19:31;;;;;;;6.05;2.25;;;;;;;2.78;100.00;100025.88;4958449;28;20068;-86
2022/02/17 03:21:57;;;;;;;13.23;2.65;;;;;;;2.68;100.00;100020.63;4959056;28;20146;-90
2022/02/17 03:24:23;;;;;;;12.10;2.10;;;;;;;2.77;100.00;100029.53;4990643;28;20444;-90
2022/02/17 03:26:48;;;;;;;5.15;1.90;;;;;;;2.78;100.00;100029.41;4988861;28;20037;-88
2022/02/17 03:29:14;;;;;;;16.17;2.22;;;;;;;2.80;100.00;100046.00;5005431;28;22282;-86
2022/02/17 03:31:39;;;;;;;12.93;1.58;;;;;;;2.62;100.00;100019.38;4974918;28;20040;-90
2022/02/17 03:34:05;;;;;;;15.65;2.75;;;;;;;2.70;100.00;100020.47;5004138;28;20029;-90
2022/02/17 03:36:39;;;;;;;16.48;2.85;;;;;;;2.76;100.00;100044.63;4987621;28;20044;-85
2022/02/17 03:39:05;;;;;;;12.70;2.03;;;;;;;2.61;100.00;100028.31;4991237;28;20025;-88
2022/02/17 03:41:30;;;;;;;16.50;2.03;;;;;;;2.61;100.00;100040.75;4978332;28;20034;-88
2022/02/17 03:43:57;;;;;;;12.80;1.88;;;;;;;2.64;100.00;100043.09;4957875;28;20064;-86
2022/02/17 03:46:23;;;;;;;14.32;1.83;;;;;;;2.65;100.00;100034.19;4988165;28;20044;-90
2022/02/17 03:49:07;;;;;;;5.47;1.23;;;;;;;2.89;100.00;100046.16;5008599;28;20045;-89
2022/02/17 03:51:52;;;;;;;11.75;2.42;;;;;;;3.02;100.00;100049.31;4978711;28;20108;-90
2022/02/17 03:54:36;;;;;;;22.88;4.15;;;;;;;3.22;100.00;100044.78;5010762;28;20053;-89
2022/02/17 03:57:21;;;;;;;13.57;2.60;;;;;;;3.47;100.00;100059.22;4983469;28;20076;-87
2022/02/17 04:00:07;;;;;;;15.40;2.75;;;;;;;3.51;100.00;100072.03;4991688;28;20049;-88
2022/02/17 04:02:52;;;;;;;10.18;3.05;;;;;;;3.37;100.00;100064.56;4993424;28;20147;-92
2022/02/17 04:05:36;;;;;;;14.27;1.45;;;;;;;3.18;100.00;100077.94;4994516;28;20071;-90
2022/02/17 04:08:02;;;;;;;12.23;2.08;;;;;;;3.01;100.00;100080.34;4994691;28;20041;-87
2022/02/17 04:10:27;;;;;;;6.00;1.27;;;;;;;3.02;100.00;100074.06;4998082;28;20049;-88
2022/02/17 04:12:53;;;;;;;9.50;2.28;;;;;;;3.05;100.00;100068.47;4989373;28;20054;-87
2022/02/17 04:15:18;;;;;;;15.55;2.42;;;;;;;3.12;100.00;100073.19;4975896;28;20468;-90
2022/02/17 04:17:44;;;;;;;9.85;1.60;;;;;;;3.16;100.00;100064.78;4959851;28;20468;-89
2022/02/17 04:20:10;;;;;;;12.40;2.33;;;;;;;3.01;100.00;100053.78;4991324;28;20526;-87
2022/02/17 04:22:36;;;;;;;13.95;2.22;;;;;;;3.09;100.00;100077.78;4965839;28;20534;-86
2022/02/17 04:25:01;;;;;;;5.88;1.42;;;;;;;3.05;100.00;100063.16;4988789;28;20038;-91
2022/02/17 04:27:27;;;;;;;16.25;2.85;;;;;;;3.13;100.00;100069.56;5010914;28;20048;-90
2022/02/17 04:29:53;;;;;;;9.73;1.65;;;;;;;3.15;100.00;100070.22;4971955;28;20042;-88
2022/02/17 04:32:18;;;;;;;12.40;1.60;;;;;;;3.15;100.00;100075.53;4953471;28;20072;-87
2022/02/17 04:34:44;;;;;;;9.52;2.15;;;;;;;3.07;100.00;100087.75;5007483;28;20041;-87
2022/02/17 04:37:09;;;;;;;12.52;2.67;;;;;;;2.99;100.00;100071.69;4967762;28;20042;-90
2022/02/17 04:39:35;;;;;;;8.90;1.98;;;;;;;3.28;100.00;100086.69;4982565;28;20030;-87
2022/02/17 04:42:19;;;;;;;10.35;2.92;;;;;;;3.42;100.00;100096.88;4986651;28;20034;-87
2022/02/17 04:44:49;;;;;;;11.68;1.95;;;;;;;3.45;100.00;100091.25;4997811;28;20065;-86
2022/02/17 04:47:16;;;;;;;14.73;2.53;;;;;;;3.57;100.00;100094.53;4988001;28;20034;-88
2022/02/17 04:49:42;;;;;;;8.27;1.75;;;;;;;3.62;100.00;100084.31;4990025;28;20041;-87
2022/02/17 04:52:08;;;;;;;17.33;2.20;;;;;;;3.71;100.00;100096.72;5007912;28;20028;-88
2022/02/17 04:54:34;;;;;;;18.50;2.95;;;;;;;3.73;100.00;100092.09;4990443;28;20030;-88
2022/02/17 04:57:00;;;;;;;7.53;1.80;;;;;;;3.83;100.00;100102.69;4993700;28;20088;-90
2022/02/17 04:59:26;;;;;;;10.27;1.70;;;;;;;3.94;100.00;100113.13;4995090;28;20031;-87
2022/02/17 05:01:54;;;;;;;20.80;2.05;;;;;;;3.98;100.00;100108.34;5006639;28;20030;-86
2022/02/17 05:04:20;;;;;;;13.38;2.75;;;;;;;4.07;100.00;100098.63;4992246;28;20042;-88
2022/02/17 05:06:49;;;;;;;12.52;1.58;;;;;;;4.16;100.00;100111.03;4954133;28;20389;-91
2022/02/17 05:09:33;;;;;;;12.98;2.50;;;;;;;4.13;100.00;100108.69;4980066;28;21936;-91
2022/02/17 05:11:59;;;;;;;12.93;1.90;;;;;;;4.11;100.00;100098.19;4956357;28;20049;-85
2022/02/17 05:14:25;;;;;;;5.55;1.48;;;;;;;4.13;100.00;100095.38;4987201;28;20527;-87
2022/02/17 05:16:50;;;;;;;15.55;3.08;;;;;;;4.12;100.00;100083.03;4990223;28;20475;-89
2022/02/17 05:19:16;;;;;;;9.25;2.00;;;;;;;4.28;100.00;100090.34;5001449;28;20042;-88
2022/02/17 05:21:41;;;;;;;18.95;3.03;;;;;;;4.37;100.00;100094.78;4961544;28;20472;-89
2022/02/17 05:24:07;;;;;;;17.33;2.05;;;;;;;4.24;100.00;100071.19;4977725;28;20387;-89
2022/02/17 05:26:33;;;;;;;9.38;1.95;;;;;;;4.24;100.00;100094.31;4992619;28;20026;-90
2022/02/17 05:28:58;;;;;;;5.45;1.60;;;;;;;4.13;100.00;100079.41;4994753;28;20040;-86
2022/02/17 05:31:24;;;;;;;12.07;2.08;;;;;;;4.08;100.00;100087.00;5004845;28;20038;-91
2022/02/17 05:33:50;;;;;;;22.88;2.25;;;;;;;4.09;100.00;100089.50;5009752;28;20061;-84
2022/02/17 05:36:15;;;;;;;13.25;2.22;;;;;;;4.18;100.00;100109.91;4986174;28;20040;-87
2022/02/17 05:38:41;;;;;;;18.65;2.22;;;;;;;4.12;100.00;100105.16;4971728;28;20030;-86
2022/02/17 05:41:08;;;;;;;7.20;0.90;;;;;;;4.14;100.00;100113.84;4984402;28;20078;-91
2022/02/17 05:43:34;;;;;;;15.07;2.13;;;;;;;4.07;100.00;100106.59;4974291;28;20528;-89
2022/02/17 05:45:59;;;;;;;14.30;2.63;;;;;;;4.11;100.00;100123.94;4985704;28;20036;-87
2022/02/17 05:48:28;;;;;;;25.42;2.22;;;;;;;4.17;100.00;100126.00;5008753;28;20031;-92
2022/02/17 05:50:53;;;;;;;13.75;1.95;;;;;;;4.22;100.00;100137.03;5010716;28;20033;-87
2022/02/17 05:53:19;;;;;;;16.00;2.40;;;;;;;4.28;100.00;100146.25;4968946;28;20108;-89
2022/02/17 05:55:44;;;;;;;15.15;2.85;;;;;;;4.32;100.00;100137.81;4960361;28;20038;-87
2022/02/17 05:58:15;;;;;;;13.98;1.92;;;;;;;4.32;100.00;100137.81;4975706;28;20163;-89
2022/02/17 06:00:41;;;;;;;13.07;1.67;;;;;;;4.36;100.00;100139.16;5003578;28;20048;-91
2022/02/17 06:03:07;;;;;;;14.93;1.75;;;;;;;4.36;100.00;100133.00;4955626;28;20045;-91
2022/02/17 06:05:32;;;;;;;9.85;1.98;;;;;;;4.31;100.00;100136.16;5009413;28;20076;-89
2022/02/17 06:07:58;;;;;;;15.07;1.73;;;;;;;4.21;100.00;100135.38;4990852;28;20037;-86
2022/02/17 06:10:24;;;;;;;11.57;2.00;;;;;;;4.21;100.00;100143.34;4988167;28;20487;-90
2022/02/17 06:12:49;;;;;;;17.83;2.63;;;;;;;4.20;100.00;100139.00;4958050;28;20318;-90
2022/02/17 06:15:19;;;;;;;22.25;2.42;;;;;;;4.08;100.00;100116.28;4960985;28;20526;-88
2022/02/17 06:17:45;;;;;;;7.45;2.17;;;;;;;4.17;100.00;100132.16;4991540;28;20025;-90
2022/02/17 06:20:11;;;;;;;9.93;2.10;;;;;;;4.19;100.00;100124.03;5010399;28;20025;-90
2022/02/17 06:22:48;;;;;;;15.13;1.85;;;;;;;4.15;100.00;100120.00;4974775;28;20058;-89
2022/02/17 06:25:19;;;;;;;14.20;2.75;;;;;;;4.08;100.00;100113.63;4957590;28;20128;-88
2022/02/17 06:27:44;;;;;;;9.10;1.75;;;;;;;4.13;100.00;100127.31;5007258;28;20034;-87
2022/02/17 06:30:10;;;;;;;10.55;1.95;;;;;;;4.11;100.00;100116.81;4986504;28;20056;-91
2022/02/17 06:32:50;;;;;;;11.02;1.95;;;;;;;4.10;100.00;100108.97;5010650;28;20041;-87
2022/02/17 06:35:18;;;;;;;17.45;1.90;;;;;;;4.01;100.00;100097.41;4990136;28;20026;-88
2022/02/17 06:37:43;;;;;;;8.90;2.03;;;;;;;3.99;100.00;100114.50;4985257;28;20029;-89
2022/02/17 06:40:10;;;;;;;19.27;3.42;;;;;;;3.99;100.00;100122.47;4969065;28;20023;-87
2022/02/17 06:42:36;;;;;;;13.85;3.10;;;;;;;3.93;100.00;100114.09;5005206;28;20025;-88
2022/02/17 06:45:02;;;;;;;10.48;3.40;;;;;;;3.83;100.00;100093.88;4957344;28;20038;-86
2022/02/17 06:47:28;;;;;;;19.33;3.40;;;;;;;3.90;100.00;100103.75;4981396;28;20034;-87
2022/02/17 06:49:53;;;;;;;9.27;2.33;;;;;;;3.92;100.00;100099.13;5004465;28;20034;-91
2022/02/17 06:52:19;;;;;;;10.82;2.25;;;;;;;4.01;100.00;100104.53;4971356;28;20049;-89
2022/02/17 06:54:44;;;;;;;9.90;2.22;;;;;;;4.06;100.00;100110.25;4971038;28;20045;-91
2022/02/17 06:57:10;;;;;;;11.85;2.35;;;;;;;4.12;100.00;100088.38;4974508;28;20196;-88
2022/02/17 06:59:36;;;;;;;7.80;1.70;;;;;;;4.23;100.00;100098.78;4973444;28;20069;-87
2022/02/17 07:02:02;;;;;;;14.77;2.72;;;;;;;4.33;100.00;100088.06;4968335;28;20034;-89
2022/02/17 07:04:27;;;;;;;10.38;2.10;;;;;;;4.50;100.00;100107.69;4985027;28;20467;-86
2022/02/17 07:06:53;;;;;;;6.85;1.83;;;;;;;4.58;100.00;100124.59;4988752;28;20034;-86
2022/02/17 07:09:19;;;;;;;12.25;2.15;;;;;;;4.61;100.00;100139.44;4974607;28;20038;-88
2022/02/17 07:11:45;;;;;;;13.82;3.05;;;;;;;4.56;100.00;100149.69;5012471;28;20096;-87
2022/02/17 07:14:11;;;;;;;9.77;2.17;;;;;;;4.26;100.00;100143.75;4990698;28;20034;-86
2022/02/17 07:16:37;;;;;;;16.65;2.20;;;;;;;4.17;100.00;100188.03;4973098;28;20039;-86
2022/02/17 07:19:03;;;;;;;14.82;2.35;;;;;;;4.10;100.00;100189.63;5005362;28;20045;-89
2022/02/17 07:21:28;;;;;;;10.75;1.90;;;;;;;4.11;100.00;100195.78;4990249;28;20084;-89
2022/02/17 07:23:54;;;;;;;9.20;2.50;;;;;;;4.00;100.00;100211.94;4975992;28;20037;-87
2022/02/17 07:26:19;;;;;;;3.80;1.33;;;;;;;3.93;100.00;100235.63;4987676;28;20388;-84
2022/02/17 07:28:45;;;;;;;5.60;1.10;;;;;;;3.64;100.00;100244.53;5000893;28;20077;-83
2022/02/17 07:31:16;;;;;;;0.98;0.98;;;;;;;3.40;100.00;100239.66;4958338;28;20546;-84
2022/02/17 07:33:42;;;;;;;0.60;0.60;;;;;;;3.26;100.00;100224.19;4968575;28;20065;-84
2022/02/17 07:36:09;;;;;;;1.13;0.68;;;;;;;3.23;100.00;100196.06;4962552;28;20057;-84
2022/02/17 07:38:35;;;;;;;0.50;0.50;;;;;;;3.24;100.00;100196.91;4988777;28;20607;-84
2022/02/17 07:41:01;;;;;;;0.40;0.40;;;;;;;3.22;100.00;100204.16;4989949;28;20038;-84
2022/02/17 07:43:27;;;;;;;0.40;0.40;;;;;;;3.22;100.00;100197.03;4953775;28;20038;-85
2022/02/17 07:45:53;;;;;;;0.40;0.40;;;;;;;3.21;100.00;100194.53;4968966;28;20498;-86
2022/02/17 07:48:19;;;;;;;0.40;0.40;;;;;;;3.17;100.00;100191.31;4993830;28;20029;-85
2022/02/17 07:50:44;;;;;;;0.40;0.40;;;;;;;3.15;100.00;100177.34;5013343;28;20025;-84
2022/02/17 07:53:10;;;;;;;0.50;0.50;;;;;;;3.20;100.00;100182.22;4954385;28;20373;-83
2022/02/17 07:55:36;;;;;;;0.40;0.40;;;;;;;3.17;100.00;100185.16;5013623;28;20030;-86
2022/02/17 07:58:05;;;;;;;0.40;0.40;;;;;;;3.20;100.00;100187.53;4957741;28;20453;-85
2022/02/17 08:00:31;;;;;;;0.40;0.40;;;;;;;3.26;100.00;100176.34;4991983;28;20099;-85
2022/02/17 08:02:57;;;;;;;0.40;0.40;;;;;;;3.27;100.00;100168.22;4961895;28;20496;-85
2022/02/17 08:05:22;;;;;;;0.40;0.40;;;;;;;3.34;100.00;100172.97;4986285;28;20093;-85
2022/02/17 08:07:48;;;;;;;0.50;0.50;;;;;;;3.38;100.00;100175.19;4988360;28;20486;-86
2022/02/17 08:10:14;;;;;;;0.40;0.40;;;;;;;3.43;100.00;100172.94;4983447;28;20022;-86
2022/02/17 08:12:43;;;;;;;0.40;0.40;;;;;;;3.56;100.00;100182.44;4973624;28;20030;-85
2022/02/17 08:15:27;;;;;;;0.40;0.40;;;;;;;3.52;100.00;100181.88;4994061;28;20447;-85
2022/02/17 08:18:12;;;;;;;0.55;0.55;;;;;;;3.46;100.00;100177.97;4993160;28;20156;-86
2022/02/17 08:20:38;;;;;;;0.50;0.50;;;;;;;3.40;100.00;100167.91;4994915;28;20500;-86
2022/02/17 08:23:04;;;;;;;0.45;0.45;;;;;;;3.32;100.00;100165.16;4994679;28;20030;-85
2022/02/17 08:25:30;;;;;;;0.50;0.50;;;;;;;3.42;100.00;100158.00;4974790;28;20471;-85
2022/02/17 08:27:56;;;;;;;0.50;0.50;;;;;;;3.60;100.00;100168.72;4995829;28;20033;-85
2022/02/17 08:30:22;;;;;;;0.50;0.50;;;;;;;3.69;100.00;100143.91;4958552;28;20066;-85
2022/02/17 08:32:48;;;;;;;1.38;0.70;;;;;;;3.81;100.00;100144.56;4962145;28;20400;-84
2022/02/17 08:35:14;;;;;;;0.50;0.50;;;;;;;3.93;100.00;100127.41;4967663;28;20029;-84
2022/02/17 08:37:41;;;;;;;0.40;0.40;;;;;;;4.35;100.00;100156.13;4956236;28;20038;-83
2022/02/17 08:40:10;;;;;;;0.50;0.50;;;;;;;4.47;100.00;100171.88;4990087;28;20490;-86
2022/02/17 08:42:36;;;;;;;0.50;0.50;;;;;;;4.56;100.00;100169.16;4970406;28;20068;-90
2022/02/17 08:45:03;;;;;;;0.40;0.40;;;;;;;4.42;100.00;100164.38;4974647;28;20476;-86
2022/02/17 08:47:29;;;;;;;0.50;0.50;;;;;;;4.30;100.00;100160.25;4984809;28;20088;-84
2022/02/17 08:49:54;;;;;;;0.40;0.40;;;;;;;4.40;100.00;100169.00;4990249;28;20213;-87
2022/02/17 08:52:21;;;;;;;0.50;0.50;;;;;;;4.48;100.00;100185.06;4986676;28;20040;-86
2022/02/17 08:54:47;;;;;;;0.50;0.50;;;;;;;4.38;100.00;100163.81;5013476;28;20050;-83
2022/02/17 08:57:13;;;;;;;0.85;0.70;;;;;;;4.24;100.00;100145.72;4991119;28;20057;-86
2022/02/17 08:59:39;;;;;;;0.50;0.50;;;;;;;4.66;100.00;100162.91;4979977;28;20038;-87
2022/02/17 09:02:05;;;;;;;0.80;0.80;;;;;;;5.99;100.00;100128.00;4985650;28;20048;-82
2022/02/17 09:04:32;;;;;;;0.60;0.60;;;;;;;7.20;100.00;100144.34;4984208;28;20034;-86
2022/02/17 09:06:59;;;;;;;0.68;0.68;;;;;;;8.77;97.80;100166.81;4990385;28;20483;-86
2022/02/17 09:09:25;;;;;;;0.40;0.40;;;;;;;9.45;94.32;100149.78;4958923;28;20034;-87
2022/02/17 09:11:50;;;;;;;0.40;0.40;;;;;;;9.33;94.20;100158.47;4976248;28;20509;-88
2022/02/17 09:14:16;;;;;;;0.50;0.50;;;;;;;7.84;100.00;100163.06;4954062;28;20038;-88
2022/02/17 09:16:42;;;;;;;0.40;0.40;;;;;;;6.85;100.00;100161.53;4975710;28;20053;-86
2022/02/17 09:19:08;;;;;;;0.50;0.50;;;;;;;6.26;100.00;100160.78;4975887;28;20625;-87
2022/02/17 09:21:34;;;;;;;0.50;0.50;;;;;;;6.33;100.00;100173.31;4989255;28;20026;-84
2022/02/17 09:24:00;;;;;;;0.60;0.60;;;;;;;7.56;100.00;100138.56;4989678;28;20127;-85
2022/02/17 09:26:29;;;;;;;0.80;0.80;;;;;;;8.62;98.03;100141.78;4979535;28;20532;-85
2022/02/17 09:28:58;;;;;;;0.70;0.70;;;;;;;8.54;97.03;100148.84;4992211;28;20165;-88
2022/02/17 09:31:24;;;;;;;0.65;0.65;;;;;;;7.89;99.45;100155.38;4977661;28;20049;-88
2022/02/17 09:33:50;;;;;;;0.40;0.40;;;;;;;7.42;100.00;100156.16;4986779;28;20038;-88
2022/02/17 09:36:17;;;;;;;0.50;0.50;;;;;;;6.85;100.00;100164.19;4984065;28;20045;-87
2022/02/17 09:38:45;;;;;;;0.40;0.40;;;;;;;6.34;100.00;100179.47;4975061;28;20176;-86
2022/02/17 09:41:16;;;;;;;0.95;0.77;;;;;;;6.14;100.00;100162.91;4976312;28;20476;-87
2022/02/17 09:43:44;;;;;;;0.65;0.65;;;;;;;8.03;100.00;100161.81;4988514;28;20088;-85
2022/02/17 09:46:12;;;;;;;0.80;0.80;;;;;;;9.88;92.18;100160.72;4993600;28;20037;-83
2022/02/17 09:48:42;;;;;;;0.70;0.70;;;;;;;11.44;85.83;100164.63;4975129;28;20130;-85
2022/02/17 09:51:08;;;;;;;0.70;0.70;;;;;;;12.46;80.90;100160.44;4987063;28;20049;-84
2022/02/17 09:53:34;;;;;;;0.80;0.80;;;;;;;13.31;78.14;100158.09;4990480;28;20035;-84
2022/02/17 09:55:59;;;;;;;0.80;0.80;;;;;;;14.08;75.97;100161.06;4990923;28;20037;-89
2022/02/17 09:58:25;;;;;;;0.70;0.70;;;;;;;14.67;73.14;100142.91;4966194;28;20079;-83
2022/02/17 10:00:53;;;;;;;1.08;1.02;;;;;;;14.71;71.65;100144.97;5024789;28;20531;-84
2022/02/17 10:03:29;;;;;;;1.65;0.98;;;;;;;14.85;71.45;100150.28;4986945;28;20032;-84
2022/02/17 10:06:14;;;;;;;0.60;0.60;;;;;;;12.05;79.95;100136.22;4983163;28;20115;-84
2022/02/17 10:08:41;;;;;;;3.53;1.10;;;;;;;11.48;84.42;100148.91;5003986;28;20524;-83
2022/02/17 10:11:08;;;;;;;0.60;0.60;;;;;;;10.60;87.74;100128.72;4972841;28;20105;-83
2022/02/17 10:13:34;;;;;;;0.60;0.60;;;;;;;10.19;90.98;100137.31;4993788;28;20064;-84
2022/02/17 10:16:01;;;;;;;0.57;0.57;;;;;;;10.18;93.36;100144.56;4969397;28;20495;-85
2022/02/17 10:18:28;;;;;;;0.80;0.80;;;;;;;9.54;96.72;100150.53;5005295;28;20061;-83
2022/02/17 10:21:07;;;;;;;1.23;0.93;;;;;;;9.07;99.00;100140.91;4985556;28;20029;-83
2022/02/17 10:23:44;;;;;;;0.68;0.65;;;;;;;8.89;100.00;100156.47;4973122;28;20049;-84
2022/02/17 10:26:16;;;;;;;6.80;1.27;;;;;;;8.63;100.00;100165.72;5001097;28;20438;-84
2022/02/17 10:29:03;;;;;;;1.48;0.80;;;;;;;8.54;100.00;100161.41;4973568;28;20065;-83
2022/02/17 10:31:37;;;;;;;2.35;2.15;;;;;;;8.29;100.00;100166.91;5013265;28;20109;-83
2022/02/17 10:34:04;;;;;;;3.40;0.75;;;;;;;8.09;100.00;100174.50;4978979;28;20379;-82
2022/02/17 10:36:42;;;;;;;5.22;1.58;;;;;;;7.80;100.00;100155.56;5004020;28;20051;-84
2022/02/17 10:39:14;;;;;;;2.72;1.30;;;;;;;7.38;100.00;100183.41;4982337;28;20108;-82
2022/02/17 10:41:46;;;;;;;7.32;1.23;;;;;;;6.88;100.00;100179.94;4998420;28;20107;-86
2022/02/17 10:44:12;;;;;;;6.40;1.20;;;;;;;6.39;100.00;100183.34;5005181;28;20021;-82
2022/02/17 10:46:38;;;;;;;0.82;0.75;;;;;;;6.10;100.00;100198.94;4967682;28;20081;-84
2022/02/17 10:49:17;;;;;;;0.50;0.50;;;;;;;5.76;100.00;100238.91;4960291;28;20112;-81
2022/02/17 10:51:44;;;;;;;3.42;1.10;;;;;;;5.50;100.00;100240.59;4981734;28;20069;-82
2022/02/17 10:54:10;;;;;;;0.70;0.60;;;;;;;5.62;100.00;100238.50;4968012;28;20476;-82
2022/02/17 10:56:36;;;;;;;0.88;0.88;;;;;;;6.19;100.00;100245.16;4998266;28;20381;-82
2022/02/17 10:59:04;;;;;;;0.50;0.50;;;;;;;6.86;100.00;100221.19;4991898;28;20043;-82
2022/02/17 11:01:30;;;;;;;0.50;0.50;;;;;;;7.47;100.00;100223.34;5000011;28;20044;-82
2022/02/17 11:03:57;;;;;;;0.50;0.50;;;;;;;7.96;100.00;100221.59;4976974;28;20048;-83
2022/02/17 11:06:22;;;;;;;0.52;0.52;;;;;;;8.42;100.00;100219.94;4981676;28;20033;-82
2022/02/17 11:08:50;;;;;;;2.15;0.60;;;;;;;8.73;99.99;100193.13;4999803;28;20092;-83
2022/02/17 11:11:18;;;;;;;1.95;0.70;;;;;;;8.70;100.00;100212.22;4979109;28;20030;-83
2022/02/17 11:13:45;;;;;;;0.50;0.50;;;;;;;8.67;100.00;100226.00;5002518;28;20080;-82
2022/02/17 11:16:12;;;;;;;0.50;0.50;;;;;;;8.57;100.00;100206.63;4999094;28;20029;-92
2022/02/17 11:18:39;;;;;;;0.60;0.60;;;;;;;8.55;100.00;100203.31;4972819;28;20030;-88
2022/02/17 11:21:07;;;;;;;0.60;0.60;;;;;;;8.57;100.00;100244.13;4977557;28;20092;-88
2022/02/17 11:23:36;;;;;;;0.52;0.52;;;;;;;8.61;100.00;100250.00;4988077;28;20038;-89
2022/02/17 11:26:04;;;;;;;0.60;0.60;;;;;;;8.60;100.00;100254.53;4996866;28;20501;-92
2022/02/17 11:28:32;;;;;;;0.65;0.50;;;;;;;8.21;100.00;100274.06;4969577;28;20037;-92